createdAt,value
2019-01-18T00:00:59.884Z,93.28
2019-01-18T00:04:06.763Z,92.81
2019-01-18T00:07:13.727Z,91.96
2019-01-18T00:10:20.603Z,92.60
2019-01-18T00:13:27.680Z,92.88
2019-01-18T00:16:35.626Z,93.47
2019-01-18T00:19:42.530Z,93.20
2019-01-18T00:22:50.485Z,92.28
2019-01-18T00:25:58.035Z,92.01
2019-01-18T00:29:05.236Z,92.21
2019-01-18T00:32:12.153Z,92.98
2019-01-18T00:35:19.039Z,92.00
2019-01-18T00:38:25.975Z,93.50
2019-01-18T00:41:32.855Z,92.31
2019-01-18T00:44:39.789Z,92.18
2019-01-18T00:47:46.732Z,91.11
2019-01-18T00:50:53.985Z,92.40
2019-01-18T00:54:01.938Z,92.45
2019-01-18T00:57:08.973Z,92.25
2019-01-18T01:00:20.223Z,91.29
2019-01-18T01:03:27.210Z,91.23
2019-01-18T01:06:34.088Z,91.79
2019-01-18T01:09:40.997Z,90.71
2019-01-18T01:12:47.974Z,91.42
2019-01-18T01:15:58.035Z,90.50
2019-01-18T01:19:04.906Z,90.65
2019-01-18T01:22:11.906Z,89.50
2019-01-18T01:25:18.799Z,89.10
2019-01-18T01:28:25.781Z,89.71
2019-01-18T01:31:32.663Z,88.46
2019-01-18T01:34:39.573Z,89.41
2019-01-18T01:37:49.395Z,89.26
2019-01-18T01:40:56.319Z,89.11
2019-01-18T01:44:03.296Z,88.26
2019-01-18T01:47:10.201Z,88.12
2019-01-18T01:50:21.620Z,88.20
2019-01-18T01:53:28.523Z,88.35
2019-01-18T01:56:37.101Z,88.14
2019-01-18T01:59:49.944Z,87.46
2019-01-18T02:02:55.477Z,88.33
2019-01-18T02:06:02.407Z,88.12
2019-01-18T02:09:09.427Z,88.30
2019-01-18T02:12:17.777Z,88.40
2019-01-18T02:15:27.421Z,88.02
2019-01-18T02:18:34.351Z,88.17
2019-01-18T02:21:41.685Z,88.53
2019-01-18T02:24:49.704Z,88.16
2019-01-18T02:27:56.574Z,88.84
2019-01-18T02:31:03.570Z,88.73
2019-01-18T02:34:10.434Z,88.93
2019-01-18T02:37:17.379Z,88.65
2019-01-18T02:40:24.248Z,89.06
2019-01-18T02:43:32.830Z,87.83
2019-01-18T02:46:40.039Z,87.77
2019-01-18T02:49:47.372Z,87.81
2019-01-18T02:52:54.243Z,88.01
2019-01-18T02:56:01.193Z,88.20
2019-01-18T02:59:08.552Z,88.11
2019-01-18T03:02:15.464Z,88.08
2019-01-18T03:05:26.461Z,87.47
2019-01-18T03:08:33.438Z,88.06
2019-01-18T03:11:40.600Z,88.48
2019-01-18T03:14:47.849Z,88.06
2019-01-18T03:17:54.728Z,87.28
2019-01-18T03:21:01.633Z,87.42
2019-01-18T03:24:08.519Z,86.99
2019-01-18T03:27:15.415Z,87.50
2019-01-18T03:30:22.621Z,86.82
2019-01-18T03:33:29.601Z,87.85
2019-01-18T03:36:36.567Z,87.61
2019-01-18T03:39:45.868Z,87.84
2019-01-18T03:42:53.229Z,87.67
2019-01-18T03:46:00.136Z,87.93
2019-01-18T03:49:07.505Z,87.74
2019-01-18T03:52:14.428Z,87.78
2019-01-18T03:55:21.306Z,87.15
2019-01-18T03:58:28.234Z,87.54
2019-01-18T04:01:36.117Z,88.58
2019-01-18T04:04:43.121Z,88.61
2019-01-18T04:07:50.079Z,88.95
2019-01-18T04:10:56.995Z,89.05
2019-01-18T04:14:04.059Z,88.81
2019-01-18T04:17:10.987Z,89.29
2019-01-18T04:20:18.694Z,89.44
2019-01-18T04:23:25.636Z,89.46
2019-01-18T04:26:32.521Z,89.51
2019-01-18T04:29:41.593Z,89.73
2019-01-18T04:32:48.520Z,89.64
2019-01-18T04:35:55.533Z,89.49
2019-01-18T04:39:04.041Z,88.89
2019-01-18T04:42:12.036Z,88.50
2019-01-18T04:45:18.922Z,89.27
2019-01-18T04:48:25.850Z,88.61
2019-01-18T04:51:32.762Z,88.48
2019-01-18T04:54:40.008Z,87.99
2019-01-18T04:57:49.730Z,88.36
2019-01-18T05:00:56.737Z,88.51
2019-01-18T05:04:03.921Z,88.25
2019-01-18T05:07:10.842Z,88.26
2019-01-18T05:10:19.434Z,88.69
2019-01-18T05:13:26.375Z,88.52
2019-01-18T05:16:33.376Z,88.61
2019-01-18T05:19:41.581Z,89.20
2019-01-18T05:22:49.662Z,89.21
2019-01-18T05:25:56.588Z,90.12
2019-01-18T05:29:03.497Z,92.08
2019-01-18T05:32:10.804Z,94.22
2019-01-18T05:35:17.897Z,95.56
2019-01-18T05:38:24.851Z,94.57
2019-01-18T05:41:31.824Z,94.93
2019-01-18T05:44:38.746Z,95.16
2019-01-18T05:47:45.696Z,95.40
2019-01-18T05:50:52.629Z,95.05
2019-01-18T05:53:59.648Z,95.22
2019-01-18T05:57:06.894Z,95.36
2019-01-18T06:00:21.771Z,95.45
2019-01-18T06:03:28.693Z,95.56
2019-01-18T06:06:37.711Z,95.19
2019-01-18T06:09:44.707Z,94.83
2019-01-18T06:12:51.658Z,94.97
2019-01-18T06:15:58.580Z,95.01
2019-01-18T06:19:05.549Z,95.24
2019-01-18T06:22:12.701Z,94.94
2019-01-18T06:25:19.767Z,94.99
2019-01-18T06:28:27.733Z,95.43
2019-01-18T06:31:34.621Z,95.83
2019-01-18T06:34:41.564Z,96.01
2019-01-18T06:37:48.452Z,96.33
2019-01-18T06:40:58.930Z,96.26
2019-01-18T06:44:06.083Z,96.49
2019-01-18T06:47:13.091Z,96.04
2019-01-18T06:50:21.083Z,95.33
2019-01-18T06:53:28.008Z,94.74
2019-01-18T06:56:35.004Z,94.59
2019-01-18T06:59:41.951Z,94.43
2019-01-18T07:02:48.970Z,94.63
2019-01-18T07:05:56.853Z,95.06
2019-01-18T07:09:06.025Z,95.39
2019-01-18T07:12:12.934Z,95.78
2019-01-18T07:15:19.899Z,96.03
2019-01-18T07:18:26.812Z,96.29
2019-01-18T07:21:33.718Z,95.54
2019-01-18T07:24:40.635Z,95.00
2019-01-18T07:27:47.610Z,94.71
2019-01-18T07:30:54.929Z,94.18
2019-01-18T07:34:04.878Z,93.76
2019-01-18T07:37:11.806Z,93.55
2019-01-18T07:40:18.683Z,93.11
2019-01-18T07:43:25.753Z,93.02
2019-01-18T07:46:32.899Z,92.85
2019-01-18T07:49:39.819Z,92.41
2019-01-18T07:52:46.821Z,92.34
2019-01-18T07:55:53.757Z,91.95
2019-01-18T07:59:00.653Z,90.94
2019-01-18T08:02:07.622Z,90.46
2019-01-18T08:05:14.565Z,89.88
2019-01-18T08:08:21.495Z,90.03
2019-01-18T08:11:29.905Z,89.50
2019-01-18T08:14:36.829Z,89.61
2019-01-18T08:17:43.753Z,89.27
2019-01-18T08:20:50.771Z,88.53
2019-01-18T08:23:57.644Z,88.51
2019-01-18T08:27:04.653Z,88.32
2019-01-18T08:30:16.131Z,88.00
2019-01-18T08:33:23.295Z,88.26
2019-01-18T08:36:30.182Z,87.98
2019-01-18T08:39:37.758Z,88.21
2019-01-18T08:42:44.651Z,87.97
2019-01-18T08:45:58.867Z,87.17
2019-01-18T08:49:05.778Z,86.06
2019-01-18T08:52:12.717Z,85.60
2019-01-18T08:55:19.955Z,84.75
2019-01-18T08:58:27.091Z,85.38
2019-01-18T09:01:35.827Z,84.09
2019-01-18T09:04:42.629Z,85.08
2019-01-18T09:07:50.576Z,84.13
2019-01-18T09:10:57.604Z,83.94
2019-01-18T09:14:04.801Z,84.02
2019-01-18T09:17:11.722Z,83.94
2019-01-18T09:20:22.017Z,83.60
2019-01-18T09:23:28.948Z,83.54
2019-01-18T09:26:35.846Z,83.69
2019-01-18T09:29:42.780Z,80.62
2019-01-18T09:32:50.284Z,81.94
2019-01-18T09:35:57.215Z,81.62
2019-01-18T09:39:05.604Z,80.74
2019-01-18T09:42:16.253Z,81.84
2019-01-18T09:45:23.509Z,80.22
2019-01-18T09:48:30.426Z,78.90
2019-01-18T09:51:37.346Z,79.71
2019-01-18T09:54:44.317Z,79.94
2019-01-18T09:57:51.238Z,79.95
2019-01-18T10:00:58.178Z,80.12
2019-01-18T10:04:05.131Z,79.96
2019-01-18T10:07:12.086Z,79.32
2019-01-18T10:10:20.127Z,79.02
2019-01-18T10:13:27.094Z,78.21
2019-01-18T10:16:34.288Z,77.73
2019-01-18T10:19:41.223Z,78.97
2019-01-18T10:22:49.111Z,78.54
2019-01-18T10:25:56.056Z,78.15
2019-01-18T10:29:03.041Z,78.49
2019-01-18T10:32:13.192Z,78.06
2019-01-18T10:35:21.105Z,78.92
2019-01-18T10:38:28.117Z,79.19
2019-01-18T10:41:35.027Z,78.20
2019-01-18T10:44:41.960Z,77.88
2019-01-18T10:47:49.044Z,77.73
2019-01-18T10:50:56.050Z,76.91
2019-01-18T10:54:02.924Z,76.84
2019-01-18T10:57:09.990Z,75.74
2019-01-18T11:00:23.029Z,75.38
2019-01-18T11:03:29.933Z,76.94
2019-01-18T11:06:36.827Z,76.53
2019-01-18T11:09:43.784Z,76.62
2019-01-18T11:12:50.666Z,76.28
2019-01-18T11:15:57.595Z,75.98
2019-01-18T11:19:05.741Z,73.43
2019-01-18T11:22:12.840Z,73.95
2019-01-18T11:25:19.738Z,74.47
2019-01-18T11:28:26.690Z,74.30
2019-01-18T11:31:33.569Z,75.50
2019-01-18T11:34:40.496Z,74.94
2019-01-18T11:37:47.525Z,75.48
2019-01-18T11:40:54.650Z,75.84
2019-01-18T11:44:03.492Z,75.83
2019-01-18T11:47:11.823Z,76.26
2019-01-18T11:50:24.491Z,73.80
2019-01-18T11:53:31.434Z,74.49
2019-01-18T11:56:38.329Z,73.14
2019-01-18T11:59:49.042Z,74.14
2019-01-18T12:02:53.847Z,73.05
2019-01-18T12:06:00.803Z,72.83
2019-01-18T12:09:09.535Z,74.02
2019-01-18T12:12:16.475Z,73.30
2019-01-18T12:15:23.352Z,75.42
2019-01-18T12:18:31.435Z,74.04
2019-01-18T12:21:38.689Z,74.08
2019-01-18T12:24:45.654Z,73.68
2019-01-18T12:27:52.544Z,74.37
2019-01-18T12:30:59.455Z,74.01
2019-01-18T12:34:06.488Z,76.09
2019-01-18T12:37:13.407Z,73.98
2019-01-18T12:40:20.789Z,74.46
2019-01-18T12:43:27.850Z,74.54
2019-01-18T12:46:34.726Z,74.87
2019-01-18T12:49:41.970Z,74.13
2019-01-18T12:52:48.832Z,74.30
2019-01-18T12:55:55.861Z,72.70
2019-01-18T12:59:02.751Z,72.80
2019-01-18T13:02:09.800Z,74.28
2019-01-18T13:05:21.129Z,73.76
2019-01-18T13:08:28.050Z,72.31
2019-01-18T13:11:34.940Z,72.87
2019-01-18T13:14:42.028Z,71.69
2019-01-18T13:17:49.364Z,70.36
2019-01-18T13:20:56.329Z,72.59
2019-01-18T13:24:03.594Z,70.88
2019-01-18T13:27:10.500Z,70.04
2019-01-18T13:30:17.666Z,70.39
2019-01-18T13:33:24.583Z,71.47
2019-01-18T13:36:31.454Z,70.00
2019-01-18T13:39:38.526Z,69.50
2019-01-18T13:42:45.512Z,69.31
2019-01-18T13:45:52.429Z,70.84
2019-01-18T13:48:59.303Z,69.26
2019-01-18T13:52:06.238Z,69.29
2019-01-18T13:55:20.587Z,69.25
2019-01-18T13:58:27.568Z,69.15
2019-01-18T14:01:34.595Z,69.25
2019-01-18T14:04:41.519Z,68.53
2019-01-18T14:07:48.398Z,68.46
2019-01-18T14:10:55.325Z,69.02
2019-01-18T14:14:02.242Z,67.71
2019-01-18T14:17:11.412Z,70.55
2019-01-18T14:20:20.949Z,69.02
2019-01-18T14:23:27.517Z,68.09
2019-01-18T14:26:34.758Z,67.82
2019-01-18T14:29:41.683Z,69.58
2019-01-18T14:32:55.140Z,69.43
2019-01-18T14:35:57.376Z,72.17
2019-01-18T14:39:06.805Z,70.71
2019-01-18T14:42:16.916Z,71.44
2019-01-18T14:45:34.181Z,70.35
2019-01-18T14:48:43.965Z,70.13
2019-01-18T14:51:50.971Z,69.91
2019-01-18T14:54:57.901Z,71.05
2019-01-18T14:58:11.806Z,69.98
2019-01-18T15:01:18.920Z,72.66
2019-01-18T15:04:25.806Z,74.09
2019-01-18T15:07:32.726Z,73.02
2019-01-18T15:10:39.604Z,71.85
2019-01-18T15:13:46.509Z,71.97
2019-01-18T15:16:53.393Z,72.59
2019-01-18T15:20:00.431Z,76.12
2019-01-18T15:23:09.592Z,73.62
2019-01-18T15:26:18.484Z,73.69
2019-01-18T15:29:26.048Z,74.32
2019-01-18T15:32:33.092Z,74.31
2019-01-18T15:35:40.667Z,73.50
2019-01-18T15:38:47.793Z,73.38
2019-01-18T15:41:54.703Z,75.30
2019-01-18T15:45:01.647Z,74.07
2019-01-18T15:48:08.686Z,74.62
2019-01-18T15:51:16.008Z,74.32
2019-01-18T15:54:23.230Z,74.44
2019-01-18T15:57:30.308Z,74.68
2019-01-18T16:00:40.842Z,75.39
2019-01-18T16:03:47.907Z,74.80
2019-01-18T16:06:54.908Z,74.08
2019-01-18T16:10:01.913Z,74.85
2019-01-18T16:13:10.875Z,74.52
2019-01-18T16:16:33.314Z,76.02
2019-01-18T16:19:40.262Z,74.78
2019-01-18T16:22:47.522Z,74.86
2019-01-18T16:25:54.428Z,76.43
2019-01-18T16:29:01.353Z,76.19
2019-01-18T16:32:08.581Z,75.35
2019-01-18T16:35:19.537Z,76.90
2019-01-18T16:38:26.659Z,77.33
2019-01-18T16:41:34.724Z,77.95
2019-01-18T16:44:41.753Z,77.52
2019-01-18T16:47:48.765Z,77.24
2019-01-18T16:50:55.791Z,78.50
2019-01-18T16:54:02.932Z,77.75
2019-01-18T16:57:11.124Z,77.58
2019-01-18T17:00:34.249Z,81.10
2019-01-18T17:03:41.267Z,79.45
2019-01-18T17:06:48.876Z,78.77
2019-01-18T17:09:55.784Z,79.49
2019-01-18T17:13:02.742Z,79.26
2019-01-18T17:16:10.206Z,79.04
2019-01-18T17:19:17.465Z,79.81
2019-01-18T17:22:24.406Z,80.62
2019-01-18T17:25:31.322Z,80.21
2019-01-18T17:28:38.390Z,80.25
2019-01-18T17:31:47.042Z,80.87
2019-01-18T17:34:54.552Z,80.60
2019-01-18T17:38:19.870Z,80.11
2019-01-18T17:42:08.903Z,80.05
2019-01-18T17:46:01.903Z,80.78
2019-01-18T17:49:49.391Z,79.99
2019-01-18T17:53:50.386Z,81.79
2019-01-18T17:58:04.591Z,80.45
2019-01-18T18:01:58.677Z,81.53
2019-01-18T18:06:04.159Z,80.04
2019-01-18T18:09:44.063Z,81.83
2019-01-18T18:13:46.270Z,82.88
2019-01-18T18:17:43.444Z,83.05
2019-01-18T18:21:59.087Z,81.36
2019-01-18T18:26:24.384Z,81.63
2019-01-18T18:30:18.580Z,82.72
2019-01-18T18:34:30.651Z,81.87
2019-01-18T18:38:43.842Z,82.55
2019-01-18T18:42:40.121Z,83.38
2019-01-18T18:46:44.937Z,82.48
2019-01-18T18:50:37.421Z,83.65
2019-01-18T18:54:41.666Z,81.78
2019-01-18T18:58:50.981Z,82.30
2019-01-18T19:02:40.313Z,81.89
2019-01-18T19:06:53.351Z,82.91
2019-01-18T19:10:55.703Z,83.84
2019-01-18T19:14:50.362Z,83.19
2019-01-18T19:18:55.077Z,83.90
2019-01-18T19:23:02.289Z,84.37
2019-01-18T19:26:53.272Z,84.27
2019-01-18T19:31:14.674Z,83.74
2019-01-18T19:35:18.929Z,83.21
2019-01-18T19:39:32.526Z,83.01
2019-01-18T19:43:56.816Z,83.62
2019-01-18T19:47:39.310Z,83.62
2019-01-18T19:51:41.877Z,83.79
2019-01-18T19:55:41.185Z,84.23
2019-01-18T19:59:59.251Z,84.50
2019-01-18T20:03:31.870Z,84.46
2019-01-18T20:07:05.250Z,84.90
2019-01-18T20:10:56.597Z,85.22
2019-01-18T20:14:45.559Z,84.54
2019-01-18T20:18:35.108Z,84.95
2019-01-18T20:22:42.439Z,84.80
2019-01-18T20:26:52.342Z,84.69
2019-01-18T20:30:55.436Z,84.40
2019-01-18T20:34:57.182Z,84.77
2019-01-18T20:39:06.125Z,84.61
2019-01-18T20:43:14.502Z,84.75
2019-01-18T20:47:33.241Z,84.06
2019-01-18T20:51:37.747Z,83.94
2019-01-18T20:55:39.688Z,85.13
2019-01-18T20:59:50.330Z,84.60
2019-01-18T21:03:40.300Z,84.34
2019-01-18T21:07:29.231Z,84.22
2019-01-18T21:11:54.517Z,84.37
2019-01-18T21:15:15.766Z,84.05
2019-01-18T21:18:47.839Z,84.11
2019-01-18T21:22:58.626Z,84.09
2019-01-18T21:26:58.584Z,84.20
2019-01-18T21:30:40.369Z,84.70
2019-01-18T21:34:32.988Z,84.96
2019-01-18T21:38:46.466Z,84.13
2019-01-18T21:42:37.056Z,83.40
2019-01-18T21:46:11.695Z,84.13
2019-01-18T21:49:52.541Z,84.32
2019-01-18T21:53:40.843Z,84.33
2019-01-18T21:57:49.936Z,84.14
2019-01-18T22:01:51.565Z,83.43
2019-01-18T22:06:16.974Z,85.24
2019-01-18T22:10:09.933Z,85.29
2019-01-18T22:14:12.494Z,84.15
2019-01-18T22:18:14.871Z,84.78
2019-01-18T22:22:14.098Z,84.66
2019-01-18T22:25:43.464Z,84.37
2019-01-18T22:30:07.620Z,83.88
2019-01-18T22:33:47.203Z,84.21
2019-01-18T22:38:18.638Z,84.47
2019-01-18T22:42:37.695Z,84.04
2019-01-18T22:46:43.474Z,84.36
2019-01-18T22:50:21.372Z,84.38
2019-01-18T22:53:49.035Z,84.38
2019-01-18T22:57:52.504Z,84.52
2019-01-18T23:02:04.389Z,84.79
2019-01-18T23:06:00.870Z,84.75
2019-01-18T23:09:46.571Z,84.46
2019-01-18T23:13:37.381Z,84.10
2019-01-18T23:17:58.577Z,84.01
2019-01-18T23:22:11.720Z,84.26
2019-01-18T23:26:02.755Z,84.32
2019-01-18T23:29:46.570Z,84.53
2019-01-18T23:33:45.539Z,83.95
2019-01-18T23:37:58.114Z,84.17
2019-01-18T23:42:14.333Z,83.83
2019-01-18T23:46:23.427Z,84.57
2019-01-18T23:50:13.272Z,84.82
2019-01-18T23:54:19.457Z,84.31
2019-01-18T23:58:04.425Z,83.94
